sensor_id;sensor_type;location;lat;lon;timestamp;P1;durP1;ratioP1;P2;durP2;ratioP2
73852;SDS011;62191;51.548;5.688;2023-07-09T00:00:19;12.07;;;10.85;;
73852;SDS011;62191;51.548;5.688;2023-07-09T00:02:44;11.15;;;10.00;;
73852;SDS011;62191;51.548;5.688;2023-07-09T00:05:13;10.85;;;9.65;;
73852;SDS011;62191;51.548;5.688;2023-07-09T00:07:43;10.98;;;9.85;;
73852;SDS011;62191;51.548;5.688;2023-07-09T00:10:15;12.82;;;10.23;;
73852;SDS011;62191;51.548;5.688;2023-07-09T00:12:45;9.90;;;8.43;;
73852;SDS011;62191;51.548;5.688;2023-07-09T00:15:13;10.80;;;9.23;;
73852;SDS011;62191;51.548;5.688;2023-07-09T00:17:42;10.40;;;9.20;;
73852;SDS011;62191;51.548;5.688;2023-07-09T00:20:15;9.90;;;8.95;;
73852;SDS011;62191;51.548;5.688;2023-07-09T00:22:44;11.05;;;8.63;;
73852;SDS011;62191;51.548;5.688;2023-07-09T00:25:16;10.63;;;9.45;;
73852;SDS011;62191;51.548;5.688;2023-07-09T00:27:45;10.05;;;8.98;;
73852;SDS011;62191;51.548;5.688;2023-07-09T00:30:19;10.75;;;9.38;;
73852;SDS011;62191;51.548;5.688;2023-07-09T00:32:48;11.40;;;10.20;;
73852;SDS011;62191;51.548;5.688;2023-07-09T00:35:17;11.85;;;10.53;;
73852;SDS011;62191;51.548;5.688;2023-07-09T00:37:45;13.08;;;9.40;;
73852;SDS011;62191;51.548;5.688;2023-07-09T00:40:14;13.18;;;10.30;;
73852;SDS011;62191;51.548;5.688;2023-07-09T00:42:44;10.45;;;9.48;;
73852;SDS011;62191;51.548;5.688;2023-07-09T00:45:23;11.78;;;9.40;;
73852;SDS011;62191;51.548;5.688;2023-07-09T00:48:01;10.20;;;9.10;;
73852;SDS011;62191;51.548;5.688;2023-07-09T00:50:50;12.07;;;10.35;;
73852;SDS011;62191;51.548;5.688;2023-07-09T00:53:20;11.97;;;10.72;;
73852;SDS011;62191;51.548;5.688;2023-07-09T00:55:54;11.55;;;10.40;;
73852;SDS011;62191;51.548;5.688;2023-07-09T00:58:24;11.12;;;10.00;;
73852;SDS011;62191;51.548;5.688;2023-07-09T01:00:59;10.15;;;9.15;;
73852;SDS011;62191;51.548;5.688;2023-07-09T01:03:35;14.07;;;11.00;;
73852;SDS011;62191;51.548;5.688;2023-07-09T01:06:05;13.83;;;10.50;;
73852;SDS011;62191;51.548;5.688;2023-07-09T01:08:33;10.93;;;9.63;;
73852;SDS011;62191;51.548;5.688;2023-07-09T01:11:02;9.80;;;8.80;;
73852;SDS011;62191;51.548;5.688;2023-07-09T01:13:29;11.83;;;10.20;;
73852;SDS011;62191;51.548;5.688;2023-07-09T01:16:00;12.13;;;9.80;;
73852;SDS011;62191;51.548;5.688;2023-07-09T01:18:28;10.13;;;9.15;;
73852;SDS011;62191;51.548;5.688;2023-07-09T01:21:03;13.05;;;10.82;;
73852;SDS011;62191;51.548;5.688;2023-07-09T01:23:26;13.72;;;9.75;;
73852;SDS011;62191;51.548;5.688;2023-07-09T01:25:54;11.55;;;10.28;;
73852;SDS011;62191;51.548;5.688;2023-07-09T01:28:23;12.50;;;10.20;;
73852;SDS011;62191;51.548;5.688;2023-07-09T01:30:50;19.85;;;10.28;;
73852;SDS011;62191;51.548;5.688;2023-07-09T01:33:19;10.75;;;9.65;;
73852;SDS011;62191;51.548;5.688;2023-07-09T01:35:50;13.60;;;10.23;;
73852;SDS011;62191;51.548;5.688;2023-07-09T01:38:18;11.25;;;10.05;;
73852;SDS011;62191;51.548;5.688;2023-07-09T01:40:46;10.13;;;9.08;;
73852;SDS011;62191;51.548;5.688;2023-07-09T01:43:13;12.07;;;10.88;;
73852;SDS011;62191;51.548;5.688;2023-07-09T01:45:40;13.05;;;10.53;;
73852;SDS011;62191;51.548;5.688;2023-07-09T01:48:08;15.45;;;10.68;;
73852;SDS011;62191;51.548;5.688;2023-07-09T01:50:37;10.80;;;9.70;;
73852;SDS011;62191;51.548;5.688;2023-07-09T01:53:06;14.10;;;10.55;;
73852;SDS011;62191;51.548;5.688;2023-07-09T01:55:34;12.78;;;11.28;;
73852;SDS011;62191;51.548;5.688;2023-07-09T01:58:01;10.95;;;9.85;;
73852;SDS011;62191;51.548;5.688;2023-07-09T02:00:30;14.30;;;10.18;;
73852;SDS011;62191;51.548;5.688;2023-07-09T02:02:58;13.18;;;10.70;;
73852;SDS011;62191;51.548;5.688;2023-07-09T02:05:27;12.45;;;10.70;;
73852;SDS011;62191;51.548;5.688;2023-07-09T02:07:55;11.12;;;10.03;;
73852;SDS011;62191;51.548;5.688;2023-07-09T02:10:22;15.68;;;11.57;;
73852;SDS011;62191;51.548;5.688;2023-07-09T02:12:50;12.33;;;10.75;;
73852;SDS011;62191;51.548;5.688;2023-07-09T02:15:17;13.03;;;10.82;;
73852;SDS011;62191;51.548;5.688;2023-07-09T02:17:44;13.98;;;11.38;;
73852;SDS011;62191;51.548;5.688;2023-07-09T02:20:12;12.65;;;11.35;;
73852;SDS011;62191;51.548;5.688;2023-07-09T02:22:40;12.03;;;10.80;;
73852;SDS011;62191;51.548;5.688;2023-07-09T02:25:09;12.15;;;10.93;;
73852;SDS011;62191;51.548;5.688;2023-07-09T02:27:36;14.87;;;11.83;;
73852;SDS011;62191;51.548;5.688;2023-07-09T02:30:07;18.75;;;11.88;;
73852;SDS011;62191;51.548;5.688;2023-07-09T02:32:34;15.05;;;11.88;;
73852;SDS011;62191;51.548;5.688;2023-07-09T02:35:01;12.53;;;11.33;;
73852;SDS011;62191;51.548;5.688;2023-07-09T02:37:30;14.43;;;12.58;;
73852;SDS011;62191;51.548;5.688;2023-07-09T02:39:58;13.62;;;11.90;;
73852;SDS011;62191;51.548;5.688;2023-07-09T02:42:25;15.63;;;13.98;;
73852;SDS011;62191;51.548;5.688;2023-07-09T02:44:53;13.10;;;11.70;;
73852;SDS011;62191;51.548;5.688;2023-07-09T02:47:22;15.78;;;11.68;;
73852;SDS011;62191;51.548;5.688;2023-07-09T02:49:49;21.30;;;12.80;;
73852;SDS011;62191;51.548;5.688;2023-07-09T02:52:16;13.45;;;11.83;;
73852;SDS011;62191;51.548;5.688;2023-07-09T02:54:44;14.50;;;13.10;;
73852;SDS011;62191;51.548;5.688;2023-07-09T02:57:11;15.60;;;13.45;;
73852;SDS011;62191;51.548;5.688;2023-07-09T02:59:38;18.50;;;13.25;;
73852;SDS011;62191;51.548;5.688;2023-07-09T03:02:06;13.18;;;11.83;;
73852;SDS011;62191;51.548;5.688;2023-07-09T03:04:33;13.65;;;11.80;;
73852;SDS011;62191;51.548;5.688;2023-07-09T03:07:00;16.73;;;14.00;;
73852;SDS011;62191;51.548;5.688;2023-07-09T03:09:30;16.60;;;12.65;;
73852;SDS011;62191;51.548;5.688;2023-07-09T03:11:57;15.23;;;13.35;;
73852;SDS011;62191;51.548;5.688;2023-07-09T03:14:24;12.95;;;11.65;;
73852;SDS011;62191;51.548;5.688;2023-07-09T03:16:52;13.25;;;12.00;;
73852;SDS011;62191;51.548;5.688;2023-07-09T03:19:19;13.85;;;12.35;;
73852;SDS011;62191;51.548;5.688;2023-07-09T03:21:47;13.83;;;12.00;;
73852;SDS011;62191;51.548;5.688;2023-07-09T03:24:15;14.10;;;11.30;;
73852;SDS011;62191;51.548;5.688;2023-07-09T03:26:44;17.35;;;13.30;;
73852;SDS011;62191;51.548;5.688;2023-07-09T03:29:12;17.67;;;13.83;;
73852;SDS011;62191;51.548;5.688;2023-07-09T03:31:39;14.45;;;13.03;;
73852;SDS011;62191;51.548;5.688;2023-07-09T03:34:07;16.07;;;13.30;;
73852;SDS011;62191;51.548;5.688;2023-07-09T03:36:34;13.93;;;12.63;;
73852;SDS011;62191;51.548;5.688;2023-07-09T03:39:03;15.25;;;13.65;;
73852;SDS011;62191;51.548;5.688;2023-07-09T03:41:32;16.15;;;13.53;;
73852;SDS011;62191;51.548;5.688;2023-07-09T03:44:00;19.50;;;14.30;;
73852;SDS011;62191;51.548;5.688;2023-07-09T03:46:28;15.85;;;14.05;;
73852;SDS011;62191;51.548;5.688;2023-07-09T03:48:57;15.00;;;13.22;;
73852;SDS011;62191;51.548;5.688;2023-07-09T03:51:25;17.50;;;14.05;;
73852;SDS011;62191;51.548;5.688;2023-07-09T03:53:52;15.05;;;13.53;;
73852;SDS011;62191;51.548;5.688;2023-07-09T03:56:20;16.87;;;14.20;;
73852;SDS011;62191;51.548;5.688;2023-07-09T03:58:47;16.15;;;14.65;;
73852;SDS011;62191;51.548;5.688;2023-07-09T04:01:14;16.52;;;14.83;;
73852;SDS011;62191;51.548;5.688;2023-07-09T04:03:42;19.77;;;14.55;;
73852;SDS011;62191;51.548;5.688;2023-07-09T04:06:09;20.88;;;17.27;;
73852;SDS011;62191;51.548;5.688;2023-07-09T04:08:36;17.67;;;14.80;;
73852;SDS011;62191;51.548;5.688;2023-07-09T04:11:04;17.87;;;15.32;;
73852;SDS011;62191;51.548;5.688;2023-07-09T04:13:31;29.72;;;16.55;;
73852;SDS011;62191;51.548;5.688;2023-07-09T04:15:59;17.02;;;15.28;;
73852;SDS011;62191;51.548;5.688;2023-07-09T04:18:26;24.37;;;17.02;;
73852;SDS011;62191;51.548;5.688;2023-07-09T04:20:54;25.62;;;19.02;;
73852;SDS011;62191;51.548;5.688;2023-07-09T04:23:21;30.25;;;22.62;;
73852;SDS011;62191;51.548;5.688;2023-07-09T04:25:48;24.87;;;19.82;;
73852;SDS011;62191;51.548;5.688;2023-07-09T04:28:16;21.27;;;17.23;;
73852;SDS011;62191;51.548;5.688;2023-07-09T04:30:46;26.40;;;18.70;;
73852;SDS011;62191;51.548;5.688;2023-07-09T04:33:14;21.33;;;17.15;;
73852;SDS011;62191;51.548;5.688;2023-07-09T04:35:43;21.70;;;17.07;;
73852;SDS011;62191;51.548;5.688;2023-07-09T04:38:12;20.30;;;17.32;;
73852;SDS011;62191;51.548;5.688;2023-07-09T04:40:41;34.18;;;17.57;;
73852;SDS011;62191;51.548;5.688;2023-07-09T04:43:08;20.95;;;15.95;;
73852;SDS011;62191;51.548;5.688;2023-07-09T04:45:36;17.73;;;15.28;;
73852;SDS011;62191;51.548;5.688;2023-07-09T04:48:03;20.00;;;15.75;;
73852;SDS011;62191;51.548;5.688;2023-07-09T04:50:31;22.27;;;17.73;;
73852;SDS011;62191;51.548;5.688;2023-07-09T04:52:59;21.17;;;18.02;;
73852;SDS011;62191;51.548;5.688;2023-07-09T04:55:26;21.95;;;18.37;;
73852;SDS011;62191;51.548;5.688;2023-07-09T04:57:55;19.23;;;17.35;;
73852;SDS011;62191;51.548;5.688;2023-07-09T05:00:22;19.23;;;17.35;;
73852;SDS011;62191;51.548;5.688;2023-07-09T05:02:52;20.88;;;18.12;;
73852;SDS011;62191;51.548;5.688;2023-07-09T05:05:18;23.80;;;16.85;;
73852;SDS011;62191;51.548;5.688;2023-07-09T05:07:46;19.30;;;17.32;;
73852;SDS011;62191;51.548;5.688;2023-07-09T05:10:13;21.20;;;18.37;;
73852;SDS011;62191;51.548;5.688;2023-07-09T05:12:50;20.10;;;18.02;;
73852;SDS011;62191;51.548;5.688;2023-07-09T05:15:17;19.90;;;16.50;;
73852;SDS011;62191;51.548;5.688;2023-07-09T05:17:45;23.20;;;18.12;;
73852;SDS011;62191;51.548;5.688;2023-07-09T05:20:13;19.25;;;17.42;;
73852;SDS011;62191;51.548;5.688;2023-07-09T05:22:41;19.35;;;17.23;;
73852;SDS011;62191;51.548;5.688;2023-07-09T05:25:08;21.95;;;19.77;;
73852;SDS011;62191;51.548;5.688;2023-07-09T05:27:36;22.70;;;20.40;;
73852;SDS011;62191;51.548;5.688;2023-07-09T05:30:03;22.98;;;20.52;;
73852;SDS011;62191;51.548;5.688;2023-07-09T05:32:31;23.90;;;21.00;;
73852;SDS011;62191;51.548;5.688;2023-07-09T05:34:59;23.00;;;18.90;;
73852;SDS011;62191;51.548;5.688;2023-07-09T05:37:26;22.42;;;20.00;;
73852;SDS011;62191;51.548;5.688;2023-07-09T05:39:53;26.02;;;23.52;;
73852;SDS011;62191;51.548;5.688;2023-07-09T05:42:21;25.95;;;21.27;;
73852;SDS011;62191;51.548;5.688;2023-07-09T05:44:48;24.82;;;22.25;;
73852;SDS011;62191;51.548;5.688;2023-07-09T05:47:18;23.30;;;20.97;;
73852;SDS011;62191;51.548;5.688;2023-07-09T05:49:45;23.02;;;20.85;;
73852;SDS011;62191;51.548;5.688;2023-07-09T05:52:14;21.07;;;18.95;;
73852;SDS011;62191;51.548;5.688;2023-07-09T05:54:41;22.52;;;20.12;;
73852;SDS011;62191;51.548;5.688;2023-07-09T05:57:09;23.20;;;20.80;;
73852;SDS011;62191;51.548;5.688;2023-07-09T05:59:37;22.58;;;20.37;;
73852;SDS011;62191;51.548;5.688;2023-07-09T06:02:04;23.50;;;21.10;;
73852;SDS011;62191;51.548;5.688;2023-07-09T06:04:35;22.42;;;20.15;;
73852;SDS011;62191;51.548;5.688;2023-07-09T06:07:02;21.37;;;19.30;;
73852;SDS011;62191;51.548;5.688;2023-07-09T06:09:30;20.55;;;18.20;;
73852;SDS011;62191;51.548;5.688;2023-07-09T06:11:57;19.82;;;17.77;;
73852;SDS011;62191;51.548;5.688;2023-07-09T06:14:26;21.93;;;18.87;;
73852;SDS011;62191;51.548;5.688;2023-07-09T06:16:54;17.17;;;15.63;;
73852;SDS011;62191;51.548;5.688;2023-07-09T06:19:21;19.32;;;17.27;;
73852;SDS011;62191;51.548;5.688;2023-07-09T06:21:48;18.73;;;16.95;;
73852;SDS011;62191;51.548;5.688;2023-07-09T06:24:16;19.73;;;16.45;;
73852;SDS011;62191;51.548;5.688;2023-07-09T06:26:43;18.62;;;16.80;;
73852;SDS011;62191;51.548;5.688;2023-07-09T06:29:10;19.10;;;17.20;;
73852;SDS011;62191;51.548;5.688;2023-07-09T06:31:39;17.65;;;15.70;;
73852;SDS011;62191;51.548;5.688;2023-07-09T06:34:08;16.95;;;15.45;;
73852;SDS011;62191;51.548;5.688;2023-07-09T06:36:36;20.82;;;16.35;;
73852;SDS011;62191;51.548;5.688;2023-07-09T06:39:03;27.15;;;16.67;;
73852;SDS011;62191;51.548;5.688;2023-07-09T06:41:31;17.62;;;15.78;;
73852;SDS011;62191;51.548;5.688;2023-07-09T06:44:00;20.75;;;16.35;;
73852;SDS011;62191;51.548;5.688;2023-07-09T06:46:27;15.90;;;14.18;;
73852;SDS011;62191;51.548;5.688;2023-07-09T06:48:55;15.90;;;14.30;;
73852;SDS011;62191;51.548;5.688;2023-07-09T06:51:22;16.07;;;13.22;;
73852;SDS011;62191;51.548;5.688;2023-07-09T06:53:49;13.38;;;12.07;;
73852;SDS011;62191;51.548;5.688;2023-07-09T06:56:17;11.73;;;10.60;;
73852;SDS011;62191;51.548;5.688;2023-07-09T06:58:45;14.05;;;11.10;;
73852;SDS011;62191;51.548;5.688;2023-07-09T07:01:12;17.57;;;12.07;;
73852;SDS011;62191;51.548;5.688;2023-07-09T07:03:40;12.75;;;11.55;;
73852;SDS011;62191;51.548;5.688;2023-07-09T07:06:07;12.18;;;10.53;;
73852;SDS011;62191;51.548;5.688;2023-07-09T07:08:34;11.60;;;10.38;;
73852;SDS011;62191;51.548;5.688;2023-07-09T07:11:02;10.53;;;9.28;;
73852;SDS011;62191;51.548;5.688;2023-07-09T07:13:31;11.88;;;10.13;;
73852;SDS011;62191;51.548;5.688;2023-07-09T07:16:01;12.10;;;9.73;;
73852;SDS011;62191;51.548;5.688;2023-07-09T07:18:30;13.03;;;9.45;;
73852;SDS011;62191;51.548;5.688;2023-07-09T07:20:57;10.50;;;9.40;;
73852;SDS011;62191;51.548;5.688;2023-07-09T07:23:24;9.48;;;8.48;;
73852;SDS011;62191;51.548;5.688;2023-07-09T07:25:52;12.63;;;8.53;;
73852;SDS011;62191;51.548;5.688;2023-07-09T07:28:20;9.53;;;8.55;;
73852;SDS011;62191;51.548;5.688;2023-07-09T07:30:57;8.33;;;7.40;;
73852;SDS011;62191;51.548;5.688;2023-07-09T07:33:34;7.15;;;6.42;;
73852;SDS011;62191;51.548;5.688;2023-07-09T07:36:05;11.33;;;7.33;;
73852;SDS011;62191;51.548;5.688;2023-07-09T07:38:33;8.80;;;6.95;;
73852;SDS011;62191;51.548;5.688;2023-07-09T07:41:00;8.80;;;6.12;;
73852;SDS011;62191;51.548;5.688;2023-07-09T07:43:28;7.00;;;6.30;;
73852;SDS011;62191;51.548;5.688;2023-07-09T07:45:55;8.13;;;5.83;;
73852;SDS011;62191;51.548;5.688;2023-07-09T07:48:23;7.90;;;6.17;;
73852;SDS011;62191;51.548;5.688;2023-07-09T07:50:50;8.05;;;6.28;;
73852;SDS011;62191;51.548;5.688;2023-07-09T07:53:17;6.08;;;5.37;;
73852;SDS011;62191;51.548;5.688;2023-07-09T07:55:45;6.15;;;5.53;;
73852;SDS011;62191;51.548;5.688;2023-07-09T07:58:12;9.85;;;6.75;;
73852;SDS011;62191;51.548;5.688;2023-07-09T08:00:40;8.43;;;5.90;;
73852;SDS011;62191;51.548;5.688;2023-07-09T08:03:08;6.05;;;5.37;;
73852;SDS011;62191;51.548;5.688;2023-07-09T08:05:35;10.53;;;5.42;;
73852;SDS011;62191;51.548;5.688;2023-07-09T08:08:02;8.83;;;4.78;;
73852;SDS011;62191;51.548;5.688;2023-07-09T08:10:30;5.67;;;4.53;;
73852;SDS011;62191;51.548;5.688;2023-07-09T08:12:57;6.80;;;4.12;;
73852;SDS011;62191;51.548;5.688;2023-07-09T08:15:24;5.25;;;4.03;;
73852;SDS011;62191;51.548;5.688;2023-07-09T08:17:52;4.90;;;4.33;;
73852;SDS011;62191;51.548;5.688;2023-07-09T08:20:19;4.58;;;4.12;;
73852;SDS011;62191;51.548;5.688;2023-07-09T08:22:46;5.67;;;4.22;;
73852;SDS011;62191;51.548;5.688;2023-07-09T08:25:14;3.55;;;3.22;;
73852;SDS011;62191;51.548;5.688;2023-07-09T08:27:41;8.15;;;4.05;;
73852;SDS011;62191;51.548;5.688;2023-07-09T08:30:09;3.65;;;3.33;;
73852;SDS011;62191;51.548;5.688;2023-07-09T08:32:36;11.22;;;4.20;;
73852;SDS011;62191;51.548;5.688;2023-07-09T08:35:04;8.23;;;4.55;;
73852;SDS011;62191;51.548;5.688;2023-07-09T08:37:31;4.60;;;3.95;;
73852;SDS011;62191;51.548;5.688;2023-07-09T08:39:58;6.15;;;3.83;;
73852;SDS011;62191;51.548;5.688;2023-07-09T08:42:28;3.85;;;3.45;;
73852;SDS011;62191;51.548;5.688;2023-07-09T08:47:47;3.65;;;2.92;;
73852;SDS011;62191;51.548;5.688;2023-07-09T08:50:28;4.00;;;3.60;;
73852;SDS011;62191;51.548;5.688;2023-07-09T08:52:59;5.15;;;3.20;;
73852;SDS011;62191;51.548;5.688;2023-07-09T08:55:28;4.97;;;3.33;;
73852;SDS011;62191;51.548;5.688;2023-07-09T08:58:02;4.37;;;3.12;;
73852;SDS011;62191;51.548;5.688;2023-07-09T09:00:40;3.92;;;3.17;;
73852;SDS011;62191;51.548;5.688;2023-07-09T09:03:26;3.42;;;2.70;;
73852;SDS011;62191;51.548;5.688;2023-07-09T09:05:59;5.95;;;3.50;;
73852;SDS011;62191;51.548;5.688;2023-07-09T09:08:36;3.85;;;3.45;;
73852;SDS011;62191;51.548;5.688;2023-07-09T09:11:20;5.20;;;3.30;;
73852;SDS011;62191;51.548;5.688;2023-07-09T09:13:50;3.72;;;3.33;;
73852;SDS011;62191;51.548;5.688;2023-07-09T09:16:26;4.97;;;3.95;;
73852;SDS011;62191;51.548;5.688;2023-07-09T09:18:55;4.70;;;3.47;;
73852;SDS011;62191;51.548;5.688;2023-07-09T09:21:34;3.77;;;3.40;;
73852;SDS011;62191;51.548;5.688;2023-07-09T09:24:13;6.65;;;3.20;;
73852;SDS011;62191;51.548;5.688;2023-07-09T09:26:45;3.80;;;3.20;;
73852;SDS011;62191;51.548;5.688;2023-07-09T09:29:14;3.52;;;2.90;;
73852;SDS011;62191;51.548;5.688;2023-07-09T09:31:46;4.22;;;3.67;;
73852;SDS011;62191;51.548;5.688;2023-07-09T09:34:26;4.35;;;3.47;;
73852;SDS011;62191;51.548;5.688;2023-07-09T09:36:55;6.47;;;3.40;;
73852;SDS011;62191;51.548;5.688;2023-07-09T09:39:25;3.45;;;2.83;;
73852;SDS011;62191;51.548;5.688;2023-07-09T09:41:57;4.22;;;3.60;;
73852;SDS011;62191;51.548;5.688;2023-07-09T09:44:26;4.25;;;3.52;;
73852;SDS011;62191;51.548;5.688;2023-07-09T09:46:59;3.90;;;3.25;;
73852;SDS011;62191;51.548;5.688;2023-07-09T09:49:23;3.83;;;3.10;;
73852;SDS011;62191;51.548;5.688;2023-07-09T09:51:50;3.92;;;3.20;;
73852;SDS011;62191;51.548;5.688;2023-07-09T09:54:21;5.00;;;2.85;;
73852;SDS011;62191;51.548;5.688;2023-07-09T09:56:50;4.47;;;3.20;;
73852;SDS011;62191;51.548;5.688;2023-07-09T09:59:20;2.98;;;2.70;;
73852;SDS011;62191;51.548;5.688;2023-07-09T10:01:56;3.45;;;3.02;;
73852;SDS011;62191;51.548;5.688;2023-07-09T10:04:26;8.83;;;2.98;;
73852;SDS011;62191;51.548;5.688;2023-07-09T10:06:57;3.30;;;3.00;;
73852;SDS011;62191;51.548;5.688;2023-07-09T10:12:28;3.35;;;3.05;;
73852;SDS011;62191;51.548;5.688;2023-07-09T10:14:52;3.20;;;2.65;;
73852;SDS011;62191;51.548;5.688;2023-07-09T10:17:42;3.33;;;2.80;;
73852;SDS011;62191;51.548;5.688;2023-07-09T10:22:54;3.70;;;3.10;;
73852;SDS011;62191;51.548;5.688;2023-07-09T10:28:00;3.33;;;2.87;;
73852;SDS011;62191;51.548;5.688;2023-07-09T10:30:56;3.65;;;2.83;;
73852;SDS011;62191;51.548;5.688;2023-07-09T10:33:39;3.35;;;3.05;;
73852;SDS011;62191;51.548;5.688;2023-07-09T10:38:59;4.45;;;3.30;;
73852;SDS011;62191;51.548;5.688;2023-07-09T10:41:39;3.10;;;2.80;;
73852;SDS011;62191;51.548;5.688;2023-07-09T10:44:16;3.42;;;3.00;;
73852;SDS011;62191;51.548;5.688;2023-07-09T10:46:45;4.05;;;2.72;;
73852;SDS011;62191;51.548;5.688;2023-07-09T10:49:15;3.87;;;3.05;;
73852;SDS011;62191;51.548;5.688;2023-07-09T10:51:48;5.15;;;2.90;;
73852;SDS011;62191;51.548;5.688;2023-07-09T10:57:02;3.33;;;2.75;;
73852;SDS011;62191;51.548;5.688;2023-07-09T10:59:35;3.62;;;2.83;;
73852;SDS011;62191;51.548;5.688;2023-07-09T11:02:18;4.22;;;3.30;;
73852;SDS011;62191;51.548;5.688;2023-07-09T11:05:04;3.65;;;2.90;;
73852;SDS011;62191;51.548;5.688;2023-07-09T11:07:36;3.60;;;2.95;;
73852;SDS011;62191;51.548;5.688;2023-07-09T11:10:57;2.92;;;2.62;;
73852;SDS011;62191;51.548;5.688;2023-07-09T11:12:45;5.70;;;2.87;;
73852;SDS011;62191;51.548;5.688;2023-07-09T11:15:15;4.67;;;3.40;;
73852;SDS011;62191;51.548;5.688;2023-07-09T11:17:45;4.55;;;3.60;;
73852;SDS011;62191;51.548;5.688;2023-07-09T11:20:21;2.95;;;2.60;;
73852;SDS011;62191;51.548;5.688;2023-07-09T11:23:19;4.25;;;3.08;;
73852;SDS011;62191;51.548;5.688;2023-07-09T11:28:41;4.65;;;3.27;;
73852;SDS011;62191;51.548;5.688;2023-07-09T11:31:18;3.33;;;2.65;;
73852;SDS011;62191;51.548;5.688;2023-07-09T11:34:06;3.10;;;2.80;;
73852;SDS011;62191;51.548;5.688;2023-07-09T11:36:50;2.77;;;2.45;;
73852;SDS011;62191;51.548;5.688;2023-07-09T11:39:20;4.12;;;3.20;;
73852;SDS011;62191;51.548;5.688;2023-07-09T11:41:55;2.87;;;2.55;;
73852;SDS011;62191;51.548;5.688;2023-07-09T11:44:24;3.15;;;2.70;;
73852;SDS011;62191;51.548;5.688;2023-07-09T11:46:57;3.92;;;3.33;;
73852;SDS011;62191;51.548;5.688;2023-07-09T11:54:57;3.90;;;3.50;;
73852;SDS011;62191;51.548;5.688;2023-07-09T11:57:32;3.22;;;2.92;;
73852;SDS011;62191;51.548;5.688;2023-07-09T11:59:59;3.50;;;3.00;;
73852;SDS011;62191;51.548;5.688;2023-07-09T12:02:29;3.05;;;2.70;;
73852;SDS011;62191;51.548;5.688;2023-07-09T12:04:57;3.30;;;2.17;;
73852;SDS011;62191;51.548;5.688;2023-07-09T12:07:25;3.58;;;2.52;;
73852;SDS011;62191;51.548;5.688;2023-07-09T12:09:52;6.67;;;2.42;;
73852;SDS011;62191;51.548;5.688;2023-07-09T12:12:21;2.37;;;2.12;;
73852;SDS011;62191;51.548;5.688;2023-07-09T12:14:50;4.12;;;2.42;;
73852;SDS011;62191;51.548;5.688;2023-07-09T12:17:18;5.08;;;2.77;;
73852;SDS011;62191;51.548;5.688;2023-07-09T12:19:45;3.15;;;2.47;;
73852;SDS011;62191;51.548;5.688;2023-07-09T12:22:15;3.00;;;2.70;;
73852;SDS011;62191;51.548;5.688;2023-07-09T12:24:48;2.95;;;2.65;;
73852;SDS011;62191;51.548;5.688;2023-07-09T12:27:19;5.65;;;2.42;;
73852;SDS011;62191;51.548;5.688;2023-07-09T12:29:47;3.17;;;2.87;;
73852;SDS011;62191;51.548;5.688;2023-07-09T12:32:17;5.28;;;2.65;;
73852;SDS011;62191;51.548;5.688;2023-07-09T12:34:55;2.95;;;2.70;;
73852;SDS011;62191;51.548;5.688;2023-07-09T12:37:24;2.80;;;2.10;;
73852;SDS011;62191;51.548;5.688;2023-07-09T12:39:53;2.60;;;2.40;;
73852;SDS011;62191;51.548;5.688;2023-07-09T12:42:21;3.00;;;2.60;;
73852;SDS011;62191;51.548;5.688;2023-07-09T12:44:53;7.62;;;3.02;;
73852;SDS011;62191;51.548;5.688;2023-07-09T12:47:23;3.15;;;2.72;;
73852;SDS011;62191;51.548;5.688;2023-07-09T12:49:59;5.90;;;3.00;;
73852;SDS011;62191;51.548;5.688;2023-07-09T12:52:22;5.10;;;2.75;;
73852;SDS011;62191;51.548;5.688;2023-07-09T12:54:59;4.80;;;2.77;;
73852;SDS011;62191;51.548;5.688;2023-07-09T12:57:28;4.00;;;2.95;;
73852;SDS011;62191;51.548;5.688;2023-07-09T12:59:56;5.87;;;2.65;;
73852;SDS011;62191;51.548;5.688;2023-07-09T13:02:28;4.40;;;2.83;;
73852;SDS011;62191;51.548;5.688;2023-07-09T13:05:06;3.62;;;3.05;;
73852;SDS011;62191;51.548;5.688;2023-07-09T13:07:37;4.65;;;3.22;;
73852;SDS011;62191;51.548;5.688;2023-07-09T13:10:15;3.37;;;3.08;;
73852;SDS011;62191;51.548;5.688;2023-07-09T13:12:38;6.53;;;3.30;;
73852;SDS011;62191;51.548;5.688;2023-07-09T13:15:06;3.87;;;3.45;;
73852;SDS011;62191;51.548;5.688;2023-07-09T13:17:35;3.77;;;3.10;;
73852;SDS011;62191;51.548;5.688;2023-07-09T13:20:02;4.55;;;3.60;;
73852;SDS011;62191;51.548;5.688;2023-07-09T13:22:30;4.10;;;3.67;;
73852;SDS011;62191;51.548;5.688;2023-07-09T13:24:57;4.33;;;3.92;;
73852;SDS011;62191;51.548;5.688;2023-07-09T13:27:24;4.15;;;3.77;;
73852;SDS011;62191;51.548;5.688;2023-07-09T13:29:52;5.55;;;4.20;;
73852;SDS011;62191;51.548;5.688;2023-07-09T13:32:19;6.15;;;4.60;;
73852;SDS011;62191;51.548;5.688;2023-07-09T13:34:46;5.75;;;5.15;;
73852;SDS011;62191;51.548;5.688;2023-07-09T13:37:14;7.17;;;6.33;;
73852;SDS011;62191;51.548;5.688;2023-07-09T13:39:43;7.58;;;6.50;;
73852;SDS011;62191;51.548;5.688;2023-07-09T13:42:16;7.17;;;6.47;;
73852;SDS011;62191;51.548;5.688;2023-07-09T13:44:41;7.85;;;7.05;;
73852;SDS011;62191;51.548;5.688;2023-07-09T13:47:13;8.25;;;7.05;;
73852;SDS011;62191;51.548;5.688;2023-07-09T13:49:42;8.73;;;7.17;;
73852;SDS011;62191;51.548;5.688;2023-07-09T13:52:16;8.73;;;7.87;;
73852;SDS011;62191;51.548;5.688;2023-07-09T13:54:44;8.75;;;7.85;;
73852;SDS011;62191;51.548;5.688;2023-07-09T13:57:15;8.73;;;7.53;;
73852;SDS011;62191;51.548;5.688;2023-07-09T13:59:43;9.88;;;8.10;;
73852;SDS011;62191;51.548;5.688;2023-07-09T14:02:19;12.40;;;8.85;;
73852;SDS011;62191;51.548;5.688;2023-07-09T14:04:48;12.13;;;7.62;;
73852;SDS011;62191;51.548;5.688;2023-07-09T14:07:25;8.30;;;7.15;;
73852;SDS011;62191;51.548;5.688;2023-07-09T14:09:49;9.10;;;7.35;;
73852;SDS011;62191;51.548;5.688;2023-07-09T14:12:17;11.33;;;8.18;;
73852;SDS011;62191;51.548;5.688;2023-07-09T14:14:51;10.30;;;8.85;;
73852;SDS011;62191;51.548;5.688;2023-07-09T14:17:15;13.08;;;8.90;;
73852;SDS011;62191;51.548;5.688;2023-07-09T14:19:42;12.30;;;8.88;;
73852;SDS011;62191;51.548;5.688;2023-07-09T14:22:21;7.30;;;6.60;;
73852;SDS011;62191;51.548;5.688;2023-07-09T14:24:46;7.97;;;7.25;;
73852;SDS011;62191;51.548;5.688;2023-07-09T14:27:14;9.78;;;7.87;;
73852;SDS011;62191;51.548;5.688;2023-07-09T14:29:41;8.10;;;7.20;;
73852;SDS011;62191;51.548;5.688;2023-07-09T14:32:21;7.22;;;6.50;;
73852;SDS011;62191;51.548;5.688;2023-07-09T14:34:39;10.28;;;5.92;;
73852;SDS011;62191;51.548;5.688;2023-07-09T14:37:06;5.90;;;5.35;;
73852;SDS011;62191;51.548;5.688;2023-07-09T14:39:34;6.80;;;6.10;;
73852;SDS011;62191;51.548;5.688;2023-07-09T14:42:02;6.55;;;5.92;;
73852;SDS011;62191;51.548;5.688;2023-07-09T14:44:30;6.22;;;5.42;;
73852;SDS011;62191;51.548;5.688;2023-07-09T14:46:59;7.70;;;6.15;;
73852;SDS011;62191;51.548;5.688;2023-07-09T14:49:28;7.33;;;6.12;;
73852;SDS011;62191;51.548;5.688;2023-07-09T14:51:57;5.40;;;4.90;;
73852;SDS011;62191;51.548;5.688;2023-07-09T14:54:27;8.40;;;5.37;;
73852;SDS011;62191;51.548;5.688;2023-07-09T14:56:57;5.08;;;4.58;;
73852;SDS011;62191;51.548;5.688;2023-07-09T14:59:24;6.28;;;5.35;;
73852;SDS011;62191;51.548;5.688;2023-07-09T15:01:52;6.00;;;5.42;;
73852;SDS011;62191;51.548;5.688;2023-07-09T15:04:32;12.85;;;5.37;;
73852;SDS011;62191;51.548;5.688;2023-07-09T15:07:00;7.45;;;4.83;;
73852;SDS011;62191;51.548;5.688;2023-07-09T15:09:28;6.22;;;5.62;;
73852;SDS011;62191;51.548;5.688;2023-07-09T15:11:56;6.58;;;5.37;;
73852;SDS011;62191;51.548;5.688;2023-07-09T15:14:25;6.10;;;5.58;;